sensor_id;sensor_type;location;lat;lon;timestamp;temperature;humidity
11501;DHT22;5807;51.606;7.624;2022-07-29T00:01:32;18.10;83.50
11501;DHT22;5807;51.606;7.624;2022-07-29T00:03:59;18.10;84.20
11501;DHT22;5807;51.606;7.624;2022-07-29T00:06:26;18.00;84.10
11501;DHT22;5807;51.606;7.624;2022-07-29T00:08:53;18.00;83.80
11501;DHT22;5807;51.606;7.624;2022-07-29T00:11:20;18.10;83.80
11501;DHT22;5807;51.606;7.624;2022-07-29T00:13:49;18.10;84.20
11501;DHT22;5807;51.606;7.624;2022-07-29T00:16:16;18.10;83.70
11501;DHT22;5807;51.606;7.624;2022-07-29T00:18:43;18.10;83.30
11501;DHT22;5807;51.606;7.624;2022-07-29T00:21:09;18.20;84.30
11501;DHT22;5807;51.606;7.624;2022-07-29T00:23:36;18.80;85.80
11501;DHT22;5807;51.606;7.624;2022-07-29T00:26:03;18.10;84.40
11501;DHT22;5807;51.606;7.624;2022-07-29T00:28:30;18.10;84.80
11501;DHT22;5807;51.606;7.624;2022-07-29T00:30:59;18.10;85.20
11501;DHT22;5807;51.606;7.624;2022-07-29T00:33:34;18.00;85.60
11501;DHT22;5807;51.606;7.624;2022-07-29T00:36:00;18.00;84.80
11501;DHT22;5807;51.606;7.624;2022-07-29T00:38:26;18.00;83.70
11501;DHT22;5807;51.606;7.624;2022-07-29T00:40:53;18.00;84.50
11501;DHT22;5807;51.606;7.624;2022-07-29T00:43:20;18.00;86.20
11501;DHT22;5807;51.606;7.624;2022-07-29T00:45:47;18.00;85.90
11501;DHT22;5807;51.606;7.624;2022-07-29T00:48:16;18.00;84.40
11501;DHT22;5807;51.606;7.624;2022-07-29T00:50:42;18.00;84.70
11501;DHT22;5807;51.606;7.624;2022-07-29T00:53:11;18.00;84.70
11501;DHT22;5807;51.606;7.624;2022-07-29T00:55:38;18.00;85.10
11501;DHT22;5807;51.606;7.624;2022-07-29T00:58:06;18.00;85.50
11501;DHT22;5807;51.606;7.624;2022-07-29T01:00:33;18.00;85.90
11501;DHT22;5807;51.606;7.624;2022-07-29T01:03:00;17.90;86.50
11501;DHT22;5807;51.606;7.624;2022-07-29T01:05:29;17.90;87.30
11501;DHT22;5807;51.606;7.624;2022-07-29T01:07:57;17.90;86.70
11501;DHT22;5807;51.606;7.624;2022-07-29T01:10:24;17.80;86.40
11501;DHT22;5807;51.606;7.624;2022-07-29T01:12:54;17.80;86.20
11501;DHT22;5807;51.606;7.624;2022-07-29T01:18:44;17.70;88.00
11501;DHT22;5807;51.606;7.624;2022-07-29T01:21:33;17.80;87.30
11501;DHT22;5807;51.606;7.624;2022-07-29T01:24:14;17.60;89.90
11501;DHT22;5807;51.606;7.624;2022-07-29T01:26:47;17.50;89.40
11501;DHT22;5807;51.606;7.624;2022-07-29T01:29:24;17.50;89.20
11501;DHT22;5807;51.606;7.624;2022-07-29T01:31:57;17.40;89.80
11501;DHT22;5807;51.606;7.624;2022-07-29T01:34:31;17.40;90.00
11501;DHT22;5807;51.606;7.624;2022-07-29T01:37:06;17.30;89.60
11501;DHT22;5807;51.606;7.624;2022-07-29T01:39:36;17.30;89.50
11501;DHT22;5807;51.606;7.624;2022-07-29T01:42:09;17.30;90.50
11501;DHT22;5807;51.606;7.624;2022-07-29T01:44:46;17.20;90.50
11501;DHT22;5807;51.606;7.624;2022-07-29T01:47:19;17.20;90.70
11501;DHT22;5807;51.606;7.624;2022-07-29T01:49:49;17.10;90.60
11501;DHT22;5807;51.606;7.624;2022-07-29T01:52:21;17.10;91.20
11501;DHT22;5807;51.606;7.624;2022-07-29T01:54:54;17.00;91.70
11501;DHT22;5807;51.606;7.624;2022-07-29T01:57:26;16.90;91.30
11501;DHT22;5807;51.606;7.624;2022-07-29T01:59:56;16.90;91.70
11501;DHT22;5807;51.606;7.624;2022-07-29T02:02:26;16.80;91.70
11501;DHT22;5807;51.606;7.624;2022-07-29T02:04:54;16.80;91.90
11501;DHT22;5807;51.606;7.624;2022-07-29T02:07:23;16.70;92.50
11501;DHT22;5807;51.606;7.624;2022-07-29T02:09:52;16.80;92.70
11501;DHT22;5807;51.606;7.624;2022-07-29T02:12:20;16.70;92.40
11501;DHT22;5807;51.606;7.624;2022-07-29T02:14:51;16.90;92.60
11501;DHT22;5807;51.606;7.624;2022-07-29T02:17:22;16.60;92.30
11501;DHT22;5807;51.606;7.624;2022-07-29T02:19:50;16.60;92.60
11501;DHT22;5807;51.606;7.624;2022-07-29T02:22:18;16.60;92.50
11501;DHT22;5807;51.606;7.624;2022-07-29T02:24:46;16.50;92.70
11501;DHT22;5807;51.606;7.624;2022-07-29T02:27:14;16.90;93.10
11501;DHT22;5807;51.606;7.624;2022-07-29T02:29:42;16.50;93.00
11501;DHT22;5807;51.606;7.624;2022-07-29T02:32:11;16.40;93.40
11501;DHT22;5807;51.606;7.624;2022-07-29T02:34:42;16.40;93.70
11501;DHT22;5807;51.606;7.624;2022-07-29T02:37:10;16.30;94.30
11501;DHT22;5807;51.606;7.624;2022-07-29T02:39:39;16.20;93.90
11501;DHT22;5807;51.606;7.624;2022-07-29T02:42:10;16.10;94.40
11501;DHT22;5807;51.606;7.624;2022-07-29T02:44:38;16.10;94.50
11501;DHT22;5807;51.606;7.624;2022-07-29T02:47:10;15.90;94.60
11501;DHT22;5807;51.606;7.624;2022-07-29T02:49:48;16.00;95.00
11501;DHT22;5807;51.606;7.624;2022-07-29T02:52:21;16.00;94.70
11501;DHT22;5807;51.606;7.624;2022-07-29T02:54:54;15.90;94.40
11501;DHT22;5807;51.606;7.624;2022-07-29T02:57:28;16.00;94.90
11501;DHT22;5807;51.606;7.624;2022-07-29T02:59:59;16.00;95.20
11501;DHT22;5807;51.606;7.624;2022-07-29T03:02:32;16.00;95.30
11501;DHT22;5807;51.606;7.624;2022-07-29T03:05:02;16.30;95.50
11501;DHT22;5807;51.606;7.624;2022-07-29T03:07:29;16.00;94.80
11501;DHT22;5807;51.606;7.624;2022-07-29T03:09:58;16.00;95.20
11501;DHT22;5807;51.606;7.624;2022-07-29T03:12:25;16.00;95.50
11501;DHT22;5807;51.606;7.624;2022-07-29T03:14:54;16.00;95.40
11501;DHT22;5807;51.606;7.624;2022-07-29T03:17:22;16.00;95.50
11501;DHT22;5807;51.606;7.624;2022-07-29T03:19:50;16.00;95.40
11501;DHT22;5807;51.606;7.624;2022-07-29T03:22:19;16.00;95.00
11501;DHT22;5807;51.606;7.624;2022-07-29T03:24:46;16.00;95.40
11501;DHT22;5807;51.606;7.624;2022-07-29T03:27:13;16.00;95.60
11501;DHT22;5807;51.606;7.624;2022-07-29T03:29:39;16.00;95.50
11501;DHT22;5807;51.606;7.624;2022-07-29T03:32:07;16.00;95.30
11501;DHT22;5807;51.606;7.624;2022-07-29T03:34:34;16.10;95.80
11501;DHT22;5807;51.606;7.624;2022-07-29T03:37:02;16.00;95.50
11501;DHT22;5807;51.606;7.624;2022-07-29T03:39:35;16.00;95.50
11501;DHT22;5807;51.606;7.624;2022-07-29T03:42:05;16.30;96.20
11501;DHT22;5807;51.606;7.624;2022-07-29T03:44:34;16.00;96.00
11501;DHT22;5807;51.606;7.624;2022-07-29T03:47:02;15.90;95.90
11501;DHT22;5807;51.606;7.624;2022-07-29T03:49:31;15.90;95.40
11501;DHT22;5807;51.606;7.624;2022-07-29T03:51:59;15.90;95.40
11501;DHT22;5807;51.606;7.624;2022-07-29T03:54:27;15.90;95.50
11501;DHT22;5807;51.606;7.624;2022-07-29T03:56:58;16.00;95.90
11501;DHT22;5807;51.606;7.624;2022-07-29T03:59:26;16.00;96.10
11501;DHT22;5807;51.606;7.624;2022-07-29T04:01:53;16.00;96.40
11501;DHT22;5807;51.606;7.624;2022-07-29T04:04:21;15.90;96.70
11501;DHT22;5807;51.606;7.624;2022-07-29T04:06:48;15.90;96.90
11501;DHT22;5807;51.606;7.624;2022-07-29T04:09:15;15.90;96.60
11501;DHT22;5807;51.606;7.624;2022-07-29T04:11:42;15.90;96.50
11501;DHT22;5807;51.606;7.624;2022-07-29T04:14:10;15.90;97.20
11501;DHT22;5807;51.606;7.624;2022-07-29T04:16:37;15.90;96.30
11501;DHT22;5807;51.606;7.624;2022-07-29T04:19:04;16.00;96.20
11501;DHT22;5807;51.606;7.624;2022-07-29T04:21:36;16.00;96.60
11501;DHT22;5807;51.606;7.624;2022-07-29T04:24:04;16.00;96.60
11501;DHT22;5807;51.606;7.624;2022-07-29T04:26:31;16.00;96.40
11501;DHT22;5807;51.606;7.624;2022-07-29T04:29:00;16.00;96.30
11501;DHT22;5807;51.606;7.624;2022-07-29T04:33:56;16.10;96.40
11501;DHT22;5807;51.606;7.624;2022-07-29T04:36:23;16.00;96.20
11501;DHT22;5807;51.606;7.624;2022-07-29T04:38:50;16.10;97.00
11501;DHT22;5807;51.606;7.624;2022-07-29T04:41:17;16.10;97.50
11501;DHT22;5807;51.606;7.624;2022-07-29T04:43:43;16.10;98.00
11501;DHT22;5807;51.606;7.624;2022-07-29T04:46:10;16.20;97.90
11501;DHT22;5807;51.606;7.624;2022-07-29T04:48:39;16.20;96.40
11501;DHT22;5807;51.606;7.624;2022-07-29T04:51:06;16.30;96.80
11501;DHT22;5807;51.606;7.624;2022-07-29T04:53:33;16.30;96.40
11501;DHT22;5807;51.606;7.624;2022-07-29T04:55:59;16.50;96.70
11501;DHT22;5807;51.606;7.624;2022-07-29T04:58:26;16.60;96.80
11501;DHT22;5807;51.606;7.624;2022-07-29T05:00:53;16.60;97.00
11501;DHT22;5807;51.606;7.624;2022-07-29T05:03:20;16.60;96.90
11501;DHT22;5807;51.606;7.624;2022-07-29T05:05:49;16.60;96.80
11501;DHT22;5807;51.606;7.624;2022-07-29T05:08:16;16.70;97.00
11501;DHT22;5807;51.606;7.624;2022-07-29T05:10:42;16.60;97.00
11501;DHT22;5807;51.606;7.624;2022-07-29T05:13:09;16.60;96.90
11501;DHT22;5807;51.606;7.624;2022-07-29T05:15:37;16.60;97.10
11501;DHT22;5807;51.606;7.624;2022-07-29T05:21:04;16.70;96.90
11501;DHT22;5807;51.606;7.624;2022-07-29T05:23:31;16.60;97.50
11501;DHT22;5807;51.606;7.624;2022-07-29T05:25:58;16.70;97.30
11501;DHT22;5807;51.606;7.624;2022-07-29T05:28:25;16.70;97.30
11501;DHT22;5807;51.606;7.624;2022-07-29T05:30:52;16.70;98.00
11501;DHT22;5807;51.606;7.624;2022-07-29T05:33:19;16.70;97.40
11501;DHT22;5807;51.606;7.624;2022-07-29T05:35:46;16.70;97.20
11501;DHT22;5807;51.606;7.624;2022-07-29T05:38:14;16.70;96.70
11501;DHT22;5807;51.606;7.624;2022-07-29T05:40:41;16.80;97.00
11501;DHT22;5807;51.606;7.624;2022-07-29T05:43:08;16.80;97.00
11501;DHT22;5807;51.606;7.624;2022-07-29T05:45:35;16.70;97.60
11501;DHT22;5807;51.606;7.624;2022-07-29T05:48:02;16.70;97.10
11501;DHT22;5807;51.606;7.624;2022-07-29T05:50:29;16.90;97.10
11501;DHT22;5807;51.606;7.624;2022-07-29T05:52:56;16.90;97.40
11501;DHT22;5807;51.606;7.624;2022-07-29T05:55:25;17.00;97.00
11501;DHT22;5807;51.606;7.624;2022-07-29T05:57:52;17.10;96.70
11501;DHT22;5807;51.606;7.624;2022-07-29T06:00:19;17.20;97.00
11501;DHT22;5807;51.606;7.624;2022-07-29T06:02:46;17.10;96.90
11501;DHT22;5807;51.606;7.624;2022-07-29T06:05:13;17.20;96.50
11501;DHT22;5807;51.606;7.624;2022-07-29T06:07:40;17.20;96.40
11501;DHT22;5807;51.606;7.624;2022-07-29T06:10:08;17.20;96.70
11501;DHT22;5807;51.606;7.624;2022-07-29T06:15:12;17.20;96.40
11501;DHT22;5807;51.606;7.624;2022-07-29T06:17:41;17.20;96.90
11501;DHT22;5807;51.606;7.624;2022-07-29T06:20:09;17.30;96.60
11501;DHT22;5807;51.606;7.624;2022-07-29T06:22:36;17.30;96.90
11501;DHT22;5807;51.606;7.624;2022-07-29T06:25:03;17.40;97.40
11501;DHT22;5807;51.606;7.624;2022-07-29T06:27:30;17.50;97.40
11501;DHT22;5807;51.606;7.624;2022-07-29T06:29:58;18.20;97.70
11501;DHT22;5807;51.606;7.624;2022-07-29T06:32:27;17.80;96.80
11501;DHT22;5807;51.606;7.624;2022-07-29T06:34:54;18.00;96.70
11501;DHT22;5807;51.606;7.624;2022-07-29T06:37:21;18.50;96.10
11501;DHT22;5807;51.606;7.624;2022-07-29T06:39:48;18.30;94.90
11501;DHT22;5807;51.606;7.624;2022-07-29T06:42:35;18.40;95.50
11501;DHT22;5807;51.606;7.624;2022-07-29T06:45:03;18.60;95.80
11501;DHT22;5807;51.606;7.624;2022-07-29T06:47:30;18.80;95.20
11501;DHT22;5807;51.606;7.624;2022-07-29T06:49:57;18.90;94.40
11501;DHT22;5807;51.606;7.624;2022-07-29T06:52:24;19.00;94.10
11501;DHT22;5807;51.606;7.624;2022-07-29T06:54:51;19.20;95.00
11501;DHT22;5807;51.606;7.624;2022-07-29T06:57:18;19.40;94.00
11501;DHT22;5807;51.606;7.624;2022-07-29T06:59:46;19.50;94.40
11501;DHT22;5807;51.606;7.624;2022-07-29T07:02:14;19.70;93.70
11501;DHT22;5807;51.606;7.624;2022-07-29T07:04:41;19.80;94.00
11501;DHT22;5807;51.606;7.624;2022-07-29T07:07:08;20.20;93.30
11501;DHT22;5807;51.606;7.624;2022-07-29T07:09:36;20.40;92.70
11501;DHT22;5807;51.606;7.624;2022-07-29T07:12:04;20.50;93.30
11501;DHT22;5807;51.606;7.624;2022-07-29T07:14:31;20.30;93.30
11501;DHT22;5807;51.606;7.624;2022-07-29T07:16:58;20.20;94.00
11501;DHT22;5807;51.606;7.624;2022-07-29T07:19:27;20.20;93.40
11501;DHT22;5807;51.606;7.624;2022-07-29T07:21:54;20.10;93.00
11501;DHT22;5807;51.606;7.624;2022-07-29T07:24:21;20.10;93.90
11501;DHT22;5807;51.606;7.624;2022-07-29T07:26:48;20.00;93.10
11501;DHT22;5807;51.606;7.624;2022-07-29T07:32:16;20.10;94.00
11501;DHT22;5807;51.606;7.624;2022-07-29T07:34:44;20.20;92.90
11501;DHT22;5807;51.606;7.624;2022-07-29T07:37:11;20.40;93.00
11501;DHT22;5807;51.606;7.624;2022-07-29T07:39:39;20.70;92.80
11501;DHT22;5807;51.606;7.624;2022-07-29T07:42:06;20.90;92.10
11501;DHT22;5807;51.606;7.624;2022-07-29T07:44:35;21.10;92.20
11501;DHT22;5807;51.606;7.624;2022-07-29T07:47:02;21.30;91.00
11501;DHT22;5807;51.606;7.624;2022-07-29T07:49:30;21.60;92.30
11501;DHT22;5807;51.606;7.624;2022-07-29T07:51:58;22.80;91.20
11501;DHT22;5807;51.606;7.624;2022-07-29T07:54:25;22.80;91.40
11501;DHT22;5807;51.606;7.624;2022-07-29T07:56:52;23.50;87.60
11501;DHT22;5807;51.606;7.624;2022-07-29T07:59:19;23.60;87.30
11501;DHT22;5807;51.606;7.624;2022-07-29T08:01:46;23.40;85.20
11501;DHT22;5807;51.606;7.624;2022-07-29T08:04:13;23.00;88.60
11501;DHT22;5807;51.606;7.624;2022-07-29T08:06:40;22.60;91.10
11501;DHT22;5807;51.606;7.624;2022-07-29T08:09:08;22.30;88.60
11501;DHT22;5807;51.606;7.624;2022-07-29T08:11:35;21.90;90.30
11501;DHT22;5807;51.606;7.624;2022-07-29T08:14:02;21.80;88.80
11501;DHT22;5807;51.606;7.624;2022-07-29T08:16:29;21.90;91.00
11501;DHT22;5807;51.606;7.624;2022-07-29T08:18:56;22.30;91.00
11501;DHT22;5807;51.606;7.624;2022-07-29T08:21:23;22.60;88.50
11501;DHT22;5807;51.606;7.624;2022-07-29T08:23:51;22.90;85.60
11501;DHT22;5807;51.606;7.624;2022-07-29T08:26:40;23.30;87.50
11501;DHT22;5807;51.606;7.624;2022-07-29T08:29:07;23.80;88.60
11501;DHT22;5807;51.606;7.624;2022-07-29T08:31:35;24.30;84.40
11501;DHT22;5807;51.606;7.624;2022-07-29T08:34:02;24.70;85.80
11501;DHT22;5807;51.606;7.624;2022-07-29T08:36:29;24.70;86.70
11501;DHT22;5807;51.606;7.624;2022-07-29T08:38:56;24.60;84.60
11501;DHT22;5807;51.606;7.624;2022-07-29T08:41:23;24.90;88.70
11501;DHT22;5807;51.606;7.624;2022-07-29T08:43:52;25.40;85.40
11501;DHT22;5807;51.606;7.624;2022-07-29T08:46:20;26.00;85.20
11501;DHT22;5807;51.606;7.624;2022-07-29T08:48:47;26.20;81.60
11501;DHT22;5807;51.606;7.624;2022-07-29T08:51:15;26.20;81.50
11501;DHT22;5807;51.606;7.624;2022-07-29T08:53:44;26.30;84.40
11501;DHT22;5807;51.606;7.624;2022-07-29T08:56:13;26.80;76.50
11501;DHT22;5807;51.606;7.624;2022-07-29T09:01:10;27.20;80.30
11501;DHT22;5807;51.606;7.624;2022-07-29T09:03:38;27.70;81.10
11501;DHT22;5807;51.606;7.624;2022-07-29T09:06:06;28.10;72.30
11501;DHT22;5807;51.606;7.624;2022-07-29T09:08:33;28.30;72.00
11501;DHT22;5807;51.606;7.624;2022-07-29T09:11:01;28.20;72.00
11501;DHT22;5807;51.606;7.624;2022-07-29T09:13:28;27.50;69.50
11501;DHT22;5807;51.606;7.624;2022-07-29T09:15:55;26.70;72.90
11501;DHT22;5807;51.606;7.624;2022-07-29T09:18:42;26.10;72.60
11501;DHT22;5807;51.606;7.624;2022-07-29T09:21:11;25.90;74.60
11501;DHT22;5807;51.606;7.624;2022-07-29T09:24:04;25.90;75.10
11501;DHT22;5807;51.606;7.624;2022-07-29T09:26:33;25.70;74.20
11501;DHT22;5807;51.606;7.624;2022-07-29T09:29:08;26.20;74.50
11501;DHT22;5807;51.606;7.624;2022-07-29T09:31:38;26.10;74.30
11501;DHT22;5807;51.606;7.624;2022-07-29T09:34:07;25.90;73.70
11501;DHT22;5807;51.606;7.624;2022-07-29T09:36:41;25.70;74.20
11501;DHT22;5807;51.606;7.624;2022-07-29T09:39:08;25.60;74.60
11501;DHT22;5807;51.606;7.624;2022-07-29T09:41:45;25.50;77.80
11501;DHT22;5807;51.606;7.624;2022-07-29T09:44:13;25.50;75.80
11501;DHT22;5807;51.606;7.624;2022-07-29T09:46:40;25.30;74.90
11501;DHT22;5807;51.606;7.624;2022-07-29T09:49:20;25.20;77.60
11501;DHT22;5807;51.606;7.624;2022-07-29T09:51:47;25.30;76.50
11501;DHT22;5807;51.606;7.624;2022-07-29T09:54:23;25.40;76.70
11501;DHT22;5807;51.606;7.624;2022-07-29T09:56:51;25.50;75.50
11501;DHT22;5807;51.606;7.624;2022-07-29T09:59:19;25.60;77.70
11501;DHT22;5807;51.606;7.624;2022-07-29T10:01:49;25.70;78.70
11501;DHT22;5807;51.606;7.624;2022-07-29T10:04:17;25.60;78.30
11501;DHT22;5807;51.606;7.624;2022-07-29T10:06:57;25.40;76.60
11501;DHT22;5807;51.606;7.624;2022-07-29T10:09:25;25.20;79.00
11501;DHT22;5807;51.606;7.624;2022-07-29T10:12:07;25.20;79.00
11501;DHT22;5807;51.606;7.624;2022-07-29T10:14:34;25.10;78.20
11501;DHT22;5807;51.606;7.624;2022-07-29T10:17:04;24.80;78.10
11501;DHT22;5807;51.606;7.624;2022-07-29T10:19:33;24.60;78.10
11501;DHT22;5807;51.606;7.624;2022-07-29T10:22:04;24.30;80.50
11501;DHT22;5807;51.606;7.624;2022-07-29T10:24:32;24.20;82.30
11501;DHT22;5807;51.606;7.624;2022-07-29T10:27:00;24.20;82.50
11501;DHT22;5807;51.606;7.624;2022-07-29T10:29:28;24.40;82.20
11501;DHT22;5807;51.606;7.624;2022-07-29T10:32:13;24.50;82.10
11501;DHT22;5807;51.606;7.624;2022-07-29T10:35:01;24.50;80.50
11501;DHT22;5807;51.606;7.624;2022-07-29T10:37:46;24.40;81.00
11501;DHT22;5807;51.606;7.624;2022-07-29T10:40:26;24.30;80.80
11501;DHT22;5807;51.606;7.624;2022-07-29T10:43:20;24.10;83.00
11501;DHT22;5807;51.606;7.624;2022-07-29T10:45:49;23.90;84.70
11501;DHT22;5807;51.606;7.624;2022-07-29T10:48:21;23.60;86.40
11501;DHT22;5807;51.606;7.624;2022-07-29T10:50:57;23.30;86.10
11501;DHT22;5807;51.606;7.624;2022-07-29T10:53:46;23.00;86.20
11501;DHT22;5807;51.606;7.624;2022-07-29T10:56:24;22.80;88.00
11501;DHT22;5807;51.606;7.624;2022-07-29T11:01:54;22.40;89.50
11501;DHT22;5807;51.606;7.624;2022-07-29T11:07:24;21.80;91.70
11501;DHT22;5807;51.606;7.624;2022-07-29T11:10:25;21.80;92.00
11501;DHT22;5807;51.606;7.624;2022-07-29T11:12:52;21.70;91.90
11501;DHT22;5807;51.606;7.624;2022-07-29T11:15:20;21.60;92.50
11501;DHT22;5807;51.606;7.624;2022-07-29T11:18:07;21.50;92.70
11501;DHT22;5807;51.606;7.624;2022-07-29T11:20:37;21.40;93.00
11501;DHT22;5807;51.606;7.624;2022-07-29T11:23:23;21.30;93.10
11501;DHT22;5807;51.606;7.624;2022-07-29T11:26:14;21.20;92.60
11501;DHT22;5807;51.606;7.624;2022-07-29T11:28:54;21.00;93.20
11501;DHT22;5807;51.606;7.624;2022-07-29T11:31:36;20.90;94.70
11501;DHT22;5807;51.606;7.624;2022-07-29T11:34:22;20.80;94.60
11501;DHT22;5807;51.606;7.624;2022-07-29T11:40:12;20.40;95.40
11501;DHT22;5807;51.606;7.624;2022-07-29T11:42:46;20.30;96.70
11501;DHT22;5807;51.606;7.624;2022-07-29T11:45:15;20.20;97.00
11501;DHT22;5807;51.606;7.624;2022-07-29T11:47:51;20.20;97.30
11501;DHT22;5807;51.606;7.624;2022-07-29T11:50:28;20.10;97.20
11501;DHT22;5807;51.606;7.624;2022-07-29T11:52:56;20.00;98.30
11501;DHT22;5807;51.606;7.624;2022-07-29T11:55:24;20.00;98.40
11501;DHT22;5807;51.606;7.624;2022-07-29T11:57:55;20.00;98.50
11501;DHT22;5807;51.606;7.624;2022-07-29T12:00:27;20.00;98.40
11501;DHT22;5807;51.606;7.624;2022-07-29T12:02:55;20.30;97.30
11501;DHT22;5807;51.606;7.624;2022-07-29T12:05:32;20.30;97.60
11501;DHT22;5807;51.606;7.624;2022-07-29T12:08:05;20.40;97.10
11501;DHT22;5807;51.606;7.624;2022-07-29T12:10:43;20.70;96.80
11501;DHT22;5807;51.606;7.624;2022-07-29T12:13:13;20.90;97.10
11501;DHT22;5807;51.606;7.624;2022-07-29T12:15:41;21.10;96.90
11501;DHT22;5807;51.606;7.624;2022-07-29T12:18:11;21.20;95.80
11501;DHT22;5807;51.606;7.624;2022-07-29T12:20:38;21.10;95.40
11501;DHT22;5807;51.606;7.624;2022-07-29T12:23:06;21.00;95.70
11501;DHT22;5807;51.606;7.624;2022-07-29T12:25:34;20.90;95.70
11501;DHT22;5807;51.606;7.624;2022-07-29T12:28:04;20.80;96.60
11501;DHT22;5807;51.606;7.624;2022-07-29T12:30:37;20.80;96.80
11501;DHT22;5807;51.606;7.624;2022-07-29T12:33:16;20.70;96.70
11501;DHT22;5807;51.606;7.624;2022-07-29T12:35:45;20.70;96.10
11501;DHT22;5807;51.606;7.624;2022-07-29T12:38:13;20.60;97.00
11501;DHT22;5807;51.606;7.624;2022-07-29T12:40:41;20.50;96.00
11501;DHT22;5807;51.606;7.624;2022-07-29T12:43:09;20.40;97.20
11501;DHT22;5807;51.606;7.624;2022-07-29T12:45:39;20.40;96.80
11501;DHT22;5807;51.606;7.624;2022-07-29T12:48:07;20.30;95.80
11501;DHT22;5807;51.606;7.624;2022-07-29T12:50:35;20.30;96.30
11501;DHT22;5807;51.606;7.624;2022-07-29T12:53:11;20.20;97.20
11501;DHT22;5807;51.606;7.624;2022-07-29T12:55:42;20.20;97.90
11501;DHT22;5807;51.606;7.624;2022-07-29T12:58:10;20.10;96.80
11501;DHT22;5807;51.606;7.624;2022-07-29T13:00:39;20.00;97.30
11501;DHT22;5807;51.606;7.624;2022-07-29T13:03:05;20.00;97.80
11501;DHT22;5807;51.606;7.624;2022-07-29T13:05:40;20.90;98.70
11501;DHT22;5807;51.606;7.624;2022-07-29T13:08:12;19.90;98.80
11501;DHT22;5807;51.606;7.624;2022-07-29T13:10:39;19.90;98.40
11501;DHT22;5807;51.606;7.624;2022-07-29T13:13:07;20.00;98.90
11501;DHT22;5807;51.606;7.624;2022-07-29T13:15:35;20.00;98.50
11501;DHT22;5807;51.606;7.624;2022-07-29T13:18:04;20.10;99.80
11501;DHT22;5807;51.606;7.624;2022-07-29T13:20:32;20.00;99.90
11501;DHT22;5807;51.606;7.624;2022-07-29T13:23:00;19.90;99.90
11501;DHT22;5807;51.606;7.624;2022-07-29T13:25:29;20.00;99.90
11501;DHT22;5807;51.606;7.624;2022-07-29T13:27:57;20.20;99.90
11501;DHT22;5807;51.606;7.624;2022-07-29T13:30:24;20.30;99.90
11501;DHT22;5807;51.606;7.624;2022-07-29T13:32:52;20.60;99.90
11501;DHT22;5807;51.606;7.624;2022-07-29T13:35:21;20.90;99.90
11501;DHT22;5807;51.606;7.624;2022-07-29T13:37:48;21.10;99.40
11501;DHT22;5807;51.606;7.624;2022-07-29T13:40:15;21.20;99.50
11501;DHT22;5807;51.606;7.624;2022-07-29T13:42:42;21.20;99.90
11501;DHT22;5807;51.606;7.624;2022-07-29T13:45:10;21.30;99.90
11501;DHT22;5807;51.606;7.624;2022-07-29T13:47:37;21.40;99.60
11501;DHT22;5807;51.606;7.624;2022-07-29T13:50:06;21.30;99.80
11501;DHT22;5807;51.606;7.624;2022-07-29T13:52:39;21.30;99.60
11501;DHT22;5807;51.606;7.624;2022-07-29T13:55:07;21.30;99.70
11501;DHT22;5807;51.606;7.624;2022-07-29T13:57:35;21.20;99.90
11501;DHT22;5807;51.606;7.624;2022-07-29T14:00:02;21.20;99.90
11501;DHT22;5807;51.606;7.624;2022-07-29T14:02:29;21.20;99.90
11501;DHT22;5807;51.606;7.624;2022-07-29T14:04:56;21.00;99.90
11501;DHT22;5807;51.606;7.624;2022-07-29T14:07:23;21.10;99.90
11501;DHT22;5807;51.606;7.624;2022-07-29T14:09:51;21.20;99.90
11501;DHT22;5807;51.606;7.624;2022-07-29T14:12:18;21.40;99.90
11501;DHT22;5807;51.606;7.624;2022-07-29T14:14:45;21.70;99.90
11501;DHT22;5807;51.606;7.624;2022-07-29T14:17:12;22.00;99.80
11501;DHT22;5807;51.606;7.624;2022-07-29T14:19:39;22.40;99.10
11501;DHT22;5807;51.606;7.624;2022-07-29T14:22:07;22.90;98.80
11501;DHT22;5807;51.606;7.624;2022-07-29T14:24:35;23.20;97.60
11501;DHT22;5807;51.606;7.624;2022-07-29T14:27:04;23.40;96.80
11501;DHT22;5807;51.606;7.624;2022-07-29T14:29:31;23.60;95.90
11501;DHT22;5807;51.606;7.624;2022-07-29T14:31:58;23.80;95.90
11501;DHT22;5807;51.606;7.624;2022-07-29T14:34:25;23.70;95.50
11501;DHT22;5807;51.606;7.624;2022-07-29T14:36:52;23.70;95.60
11501;DHT22;5807;51.606;7.624;2022-07-29T14:39:21;23.80;95.80
11501;DHT22;5807;51.606;7.624;2022-07-29T14:41:48;24.00;95.30
11501;DHT22;5807;51.606;7.624;2022-07-29T14:44:18;24.10;95.10
11501;DHT22;5807;51.606;7.624;2022-07-29T14:46:44;24.20;94.90
11501;DHT22;5807;51.606;7.624;2022-07-29T14:49:11;24.20;95.30
11501;DHT22;5807;51.606;7.624;2022-07-29T14:51:38;24.20;95.10
11501;DHT22;5807;51.606;7.624;2022-07-29T14:54:05;24.30;94.80
11501;DHT22;5807;51.606;7.624;2022-07-29T14:56:32;24.40;95.50
11501;DHT22;5807;51.606;7.624;2022-07-29T14:58:59;24.50;93.90
11501;DHT22;5807;51.606;7.624;2022-07-29T15:01:27;24.50;94.50
11501;DHT22;5807;51.606;7.624;2022-07-29T15:03:54;24.60;96.60
11501;DHT22;5807;51.606;7.624;2022-07-29T15:08:48;24.60;94.00
11501;DHT22;5807;51.606;7.624;2022-07-29T15:11:18;24.70;94.90
11501;DHT22;5807;51.606;7.624;2022-07-29T15:13:45;24.90;93.90
11501;DHT22;5807;51.606;7.624;2022-07-29T15:16:12;25.00;92.30
11501;DHT22;5807;51.606;7.624;2022-07-29T15:18:40;25.00;92.90
11501;DHT22;5807;51.606;7.624;2022-07-29T15:21:07;25.00;93.10
11501;DHT22;5807;51.606;7.624;2022-07-29T15:23:34;25.00;93.60
11501;DHT22;5807;51.606;7.624;2022-07-29T15:26:02;25.10;92.60
11501;DHT22;5807;51.606;7.624;2022-07-29T15:28:28;25.30;92.60
11501;DHT22;5807;51.606;7.624;2022-07-29T15:30:55;25.50;92.70
11501;DHT22;5807;51.606;7.624;2022-07-29T15:33:22;25.70;91.70
11501;DHT22;5807;51.606;7.624;2022-07-29T15:35:51;25.90;90.60
11501;DHT22;5807;51.606;7.624;2022-07-29T15:38:18;26.00;90.20
11501;DHT22;5807;51.606;7.624;2022-07-29T15:40:44;26.10;90.40
11501;DHT22;5807;51.606;7.624;2022-07-29T15:43:12;26.20;87.90
11501;DHT22;5807;51.606;7.624;2022-07-29T15:45:40;26.30;89.30
11501;DHT22;5807;51.606;7.624;2022-07-29T15:48:27;26.40;87.10
11501;DHT22;5807;51.606;7.624;2022-07-29T15:50:55;26.40;88.60
11501;DHT22;5807;51.606;7.624;2022-07-29T15:53:22;26.40;88.00
11501;DHT22;5807;51.606;7.624;2022-07-29T15:55:50;26.50;85.70
11501;DHT22;5807;51.606;7.624;2022-07-29T15:58:17;26.50;86.20
11501;DHT22;5807;51.606;7.624;2022-07-29T16:00:44;26.50;85.00
11501;DHT22;5807;51.606;7.624;2022-07-29T16:03:11;26.30;85.80
11501;DHT22;5807;51.606;7.624;2022-07-29T16:05:38;26.20;87.90
11501;DHT22;5807;51.606;7.624;2022-07-29T16:08:06;25.90;86.00
11501;DHT22;5807;51.606;7.624;2022-07-29T16:10:33;25.60;85.40
11501;DHT22;5807;51.606;7.624;2022-07-29T16:13:00;25.40;86.90
11501;DHT22;5807;51.606;7.624;2022-07-29T16:15:27;25.00;88.60
11501;DHT22;5807;51.606;7.624;2022-07-29T16:17:53;25.00;88.80
11501;DHT22;5807;51.606;7.624;2022-07-29T16:20:21;24.90;89.40
11501;DHT22;5807;51.606;7.624;2022-07-29T16:22:47;24.70;87.70
11501;DHT22;5807;51.606;7.624;2022-07-29T16:25:16;24.60;87.70
11501;DHT22;5807;51.606;7.624;2022-07-29T16:27:43;24.70;88.60